Valley Peak, Santa Cruz Island Reserve, California Weather observations

Data are for 10 minute period ending at time listed.
 Day   Time   Solar   Ave.   Ave.  Ave.  Vector  Max.   Baro.   Total    
  of    of     Rad.   Air    Rel.  Wind   Wind   Wind  Press.  Precip.   
Year   Day            Temp.  Hum.  Speed  Dir.   Gust                    
2017   (PST)  Kw/m2    F      %     mph   deg.    mph    mb.     in.     
-------------------------------------------------------------------------
  81   16:00   0.42   57.5    66   11.9   313    20.5   965.1    0.00 
  81   16:10   0.37   57.8    66   11.9   306    20.8   965.0    0.00 
  81   16:20   0.36   57.0    67   13.4   316    23.8   964.9    0.00 
  81   16:30   0.32   56.9    66   13.1   307    26.7   964.8    0.00 
  81   16:40   0.28   56.1    65   15.6   312    29.7   964.9    0.00 
  81   16:50   0.24   55.6    64   17.9   312    29.5   965.0    0.00 
  81   17:00   0.21   55.4    64   15.0   311    30.5   965.1    0.00 
  81   17:10   0.17   55.1    63   16.9   304    32.7   965.1    0.00 
  81   17:20   0.14   54.7    63   16.7   304    30.0   965.1    0.00 
  81   17:30   0.10   54.1    66   18.4   299    27.5   965.3    0.00 
  81   17:40   0.07   53.3    69   15.9   308    25.9   965.4    0.00 
  81   17:50   0.05   52.8    69   19.0   305    34.4   965.4    0.00 
  81   18:00   0.03   51.9    71   19.6   302    30.9   965.4    0.00 
  81   18:10   0.01   51.3    71   18.0   311    29.8   965.5    0.00 
  81   18:20   0.00   50.8    69   20.8   313    35.7   965.5    0.00 
  81   18:30   0.00   50.5    71   20.6   306    35.0   965.6    0.00 
  81   18:40   0.00   50.1    73   20.4   314    35.0   965.6    0.00 
  81   18:50   0.00   49.8    74   24.6   323    41.3   965.4    0.00 
  81   19:00   0.00   49.5    76   25.2   319    40.8   965.4    0.00 
  81   19:10   0.00   49.4    74   24.6   317    38.9   965.3    0.00 
  81   19:20   0.00   49.1    75   26.0   315    48.3   965.3    0.00 
  81   19:30   0.00   49.1    75   24.7   316    39.5   965.3    0.00 
  81   19:40   0.00   48.8    78   24.1   316    38.0   965.4    0.00 
  81   19:50   0.00   48.7    78   25.2   319    41.4   965.4    0.00 
  81   20:00   0.00   48.7    76   26.6   314    43.6   965.3    0.00 
  81   20:10   0.00   48.6    77   26.9   319    50.1   965.4    0.00 
  81   20:20   0.00   48.3    78   28.6   317    45.9   965.5    0.00 
  81   20:30   0.00   48.1    79   30.8   311    52.7   965.5    0.00 
  81   20:40   0.00   47.9    80   30.5   313    45.2   965.6    0.00 
  81   20:50   0.00   47.9    77   30.4   313    44.3   965.8    0.00 
  81   21:00   0.00   47.9    76   27.3   314    40.9   966.2    0.00 
  81   21:10   0.00   47.8    76   24.5   320    37.5   966.4    0.00 
  81   21:20   0.00   47.6    78   18.4   321    32.8   966.6    0.00 
  81   21:30   0.00   47.6    79   19.2   322    33.3   966.8    0.00 
  81   21:40   0.00   47.4    82   17.1   312    30.2   966.8    0.00 
  81   21:50   0.00   47.3    83   20.1   308    38.9   966.8    0.00 
  81   22:00   0.00   47.3    82   23.7   302    39.6   966.7    0.00 
  81   22:10   0.00   47.2    81   24.9   308    40.4   966.7    0.00 
  81   22:20   0.00   47.3    82   24.9   312    46.5   966.7    0.00 
  81   22:30   0.00   47.3    83   24.3   312    41.1   966.8    0.00 
  81   22:40   0.00   47.3    84   25.1   314    42.7   966.9    0.00 
  81   22:50   0.00   47.3    84   24.2   312    40.0   966.9    0.00 
  81   23:00   0.00   47.2    85   26.1   309    38.8   966.9    0.00 
  81   23:10   0.00   47.2    84   23.0   313    39.1   967.1    0.00 
  81   23:20   0.00   47.3    82   23.4   315    40.5   967.3    0.00 
  81   23:30   0.00   47.2    83   17.8   310    34.5   967.4    0.00 
  81   23:40   0.00   47.1    83   20.5   305    32.2   967.3    0.00 
  81   23:50   0.00   47.1    84   22.0   312    38.4   967.2    0.00 
  82    0:00   0.00   47.1    83   18.4   310    30.5   967.4    0.00 
  82    0:10   0.00   47.1    82   20.5   305    31.5   967.4    0.00 
  82    0:20   0.00   47.0    83   20.9   299    42.5   967.4    0.00 
  82    0:30   0.00   47.1    83   22.9   300    33.7   967.4    0.00 
  82    0:40   0.00   47.0    85   21.8   300    34.6   967.5    0.00 
  82    0:50   0.00   47.0    84   22.3   302    34.5   967.6    0.00 
  82    1:00   0.00   47.0    83   20.7   301    34.4   967.6    0.00 
  82    1:10   0.00   47.3    77   20.8   303    33.8   967.7    0.00 
  82    1:20   0.00   47.6    74   23.1   305    39.8   967.6    0.00 
  82    1:30   0.00   47.7    72   25.2   314    38.6   967.5    0.00 
  82    1:40   0.00   47.7    73   23.4   314    41.9   967.6    0.00 
  82    1:50   0.00   47.2    77   23.0   313    34.8   967.5    0.00 
  82    2:00   0.00   47.0    80   25.5   317    40.0   967.5    0.00 
  82    2:10   0.00   46.6    85   22.0   318    34.3   967.4    0.00 
  82    2:20   0.00   46.5    84   21.0   322    36.3   967.4    0.00 
  82    2:30   0.00   46.5    83   19.8   326    34.5   967.4    0.00 
  82    2:40   0.00   46.6    79   18.6   321    33.0   967.3    0.00 
  82    2:50   0.00   46.7    76   22.5   316    36.4   967.1    0.00 
  82    3:00   0.00   46.8    75   25.5   321    40.7   966.9    0.00 
  82    3:10   0.00   46.7    75   29.6   324    47.6   966.7    0.00 
  82    3:20   0.00   46.5    76   30.5   320    43.8   966.8    0.00 
  82    3:30   0.00   46.3    75   26.7   322    40.7   966.9    0.00 
  82    3:40   0.00   46.4    71   25.9   327    44.0   966.9    0.00 
  82    3:50   0.00   46.5    69   25.8   327    40.6   967.0    0.00 
  82    4:00   0.00   46.7    68   24.1   335    47.2   967.0    0.00 
  82    4:10   0.00   46.7    67   20.5   338    37.4   967.1    0.00 
  82    4:20   0.00   47.0    64   23.0   333    44.3   967.2    0.00 
  82    4:30   0.00   47.0    64   23.1   336    38.0   967.4    0.00 
  82    4:40   0.00   46.3    69   23.2   342    44.6   967.4    0.00 
  82    4:50   0.00   46.2    69   24.8   344    49.1   967.2    0.00 
  82    5:00   0.00   46.1    70   27.1   338    44.8   967.2    0.00 
  82    5:10   0.00   46.3    67   29.4   335    51.0   967.2    0.00 
  82    5:20   0.00   46.4    66   25.2   336    44.1   967.3    0.00 
  82    5:30   0.00   46.2    67   23.5   346    43.6   967.3    0.00 
  82    5:40   0.00   46.1    67   22.9   350    44.5   967.2    0.00 
  82    5:50   0.00   46.0    67   22.0   346    32.2   967.4    0.00 
  82    6:00   0.00   46.0    68   21.3   343    33.3   967.6    0.00 
  82    6:10   0.00   45.9    71   22.5   344    34.4   967.7    0.00 
  82    6:20   0.01   46.0    70   21.8   339    35.5   967.9    0.00 
  82    6:30   0.05   46.1    70   19.7   348    38.1   967.8    0.00 
  82    6:40   0.08   46.3    71   18.4   346    29.6   968.0    0.00 
  82    6:50   0.12   46.4    72   15.5   356    28.1   968.2    0.00 
  82    7:00   0.15   46.5    71   13.4   356    25.6   968.4    0.00 
  82    7:10   0.18   46.6    72   10.8   351    21.1   968.5    0.00 
  82    7:20   0.22   46.7    71   14.6   322    25.2   968.6    0.00 
  82    7:30   0.26   46.9    68   13.1   306    27.5   968.9    0.00 
  82    7:40   0.29   47.3    66   13.5   296    25.1   969.1    0.00 
  82    7:50   0.33   47.8    68   12.3   297    24.9   969.3    0.00 
  82    8:00   0.37   48.1    66    8.2   298    17.3   969.4    0.00 
  82    8:10   0.40   48.8    67    9.4   308    18.4   969.8    0.00 
  82    8:20   0.44   48.5    69   14.3   308    26.2   969.9    0.00 
  82    8:30   0.47   48.7    70   16.3   317    24.5   969.9    0.00 
  82    8:40   0.50   48.8    69   18.1   325    30.0   969.9    0.00 
  82    8:50   0.53   48.9    70   18.5   325    31.0   970.0    0.00 
  82    9:00   0.56   49.2    69   18.7   326    27.5   970.1    0.00 
  82    9:10   0.59   49.4    70   16.0   326    26.8   970.3    0.00 
  82    9:20   0.62   50.0    68   12.8   332    23.8   970.5    0.00 
  82    9:30   0.65   50.5    66   10.0   324    18.7   970.7    0.00 
  82    9:40   0.68   50.8    62   14.9   325    24.2   970.8    0.00 
  82    9:50   0.70   51.3    62   17.1   334    26.2   970.8    0.00 
  82   10:00   0.73   51.3    63   17.8   339    28.4   970.6    0.00 
  82   10:10   0.75   51.4    62   18.9   332    29.8   970.5    0.00 
  82   10:20   0.77   52.4    59   12.0   347    21.8   970.6    0.00 
  82   10:30   0.80   53.7    55    9.6   346    18.3   970.8    0.00 
  82   10:40   0.81   54.5    53   10.9   355    18.6   970.8    0.00 
  82   10:50   0.83   54.5    51   14.7   341    24.0   970.7    0.00 
  82   11:00   0.84   54.9    52   13.8   355    21.3   970.6    0.00 
  82   11:10   0.86   55.1    51   14.8   343    25.6   970.6    0.00 
  82   11:20   0.86   55.3    48   16.4   333    28.1   970.6    0.00 
  82   11:30   0.87   55.5    48   16.9   340    26.2   970.5    0.00 
  82   11:40   0.87   55.8    50   14.2   358    24.2   970.5    0.00 
  82   11:50   0.89   56.0    50   15.6   359    22.5   970.4    0.00 
  82   12:00   0.89   55.8    50   16.3   345    26.9   970.3    0.00 
  82   12:10   0.89   56.8    48   14.6   353    24.5   970.2    0.00 
  82   12:20   0.89   57.1    48   14.5   357    25.7   970.1    0.00 
  82   12:30   0.88   57.7    48   15.5   345    30.5   970.0    0.00 
  82   12:40   0.87   57.4    49   15.1   351    24.2   969.9    0.00 
  82   12:50   0.87   57.5    47   14.6   353    25.8   969.9    0.00 
  82   13:00   0.86   57.7    47   13.7   355    22.2   969.8    0.00 
  82   13:10   0.85   58.4    45   14.0   350    24.3   969.7    0.00 
  82   13:20   0.84   58.6    46   13.7   348    22.3   969.6    0.00 
  82   13:30   0.83   59.1    46   10.5   347    20.7   969.7    0.00 
  82   13:40   0.81   59.3    44   11.7   332    22.3   969.8    0.00 
  82   13:50   0.79   59.7    45   11.2   334    21.3   969.7    0.00 
  82   14:00   0.77   59.9    45   10.5   333    19.7   969.6    0.00 
  82   14:10   0.75   60.3    44    8.9   334    16.0   969.6    0.00 
  82   14:20   0.73   60.7    45    6.5   339    16.9   969.4    0.00 
  82   14:30   0.70   60.9    45    7.2   337    17.0   969.5    0.00 
  82   14:40   0.68   61.8    44    7.3   321    14.5   969.4    0.00 
  82   14:50   0.64   62.5    47    5.0   287    14.3   969.4    0.00 
  82   15:00   0.62   63.8    51    5.3   237     9.5   969.3    0.00 
  82   15:10   0.59   63.4    54    9.0   231    15.4   969.4    0.00 
  82   15:20   0.56   60.9    57    9.3   243    15.1   969.3    0.00 
  82   15:30   0.53   61.3    55    7.4   255    13.0   969.3    0.00 
  82   15:40   0.49   61.1    58   10.6   232    15.9   969.3    0.00 
  82   15:50   0.46   60.1    60   14.1   244    19.8   969.2    0.00 

Return to Valley Peak, Santa Cruz Island Reserve graphs page.


Western Regional Climate Center,wrcc@dri.edu